createdAt,value
2017-07-22T00:00:04.679Z,5.20
2017-07-22T00:01:01.099Z,4.80
2017-07-22T00:01:58.271Z,5.20
2017-07-22T00:02:57.555Z,6.00
2017-07-22T00:05:01.138Z,6.10
2017-07-22T00:05:57.536Z,5.30
2017-07-22T00:06:53.858Z,10.70
2017-07-22T00:07:50.260Z,5.30
2017-07-22T00:08:46.683Z,5.70
2017-07-22T00:09:43.094Z,6.40
2017-07-22T00:10:39.435Z,5.60
2017-07-22T00:11:35.775Z,5.70
2017-07-22T00:12:32.295Z,5.40
2017-07-22T00:13:28.642Z,6.40
2017-07-22T00:14:24.955Z,11.90
2017-07-22T00:15:21.331Z,6.00
2017-07-22T00:16:17.683Z,6.20
2017-07-22T00:18:21.356Z,6.70
2017-07-22T00:19:17.976Z,8.10
2017-07-22T00:20:14.375Z,6.60
2017-07-22T00:21:11.768Z,6.70
2017-07-22T00:22:08.200Z,9.70
2017-07-22T00:25:17.203Z,7.00
2017-07-22T00:26:14.540Z,7.80
2017-07-22T00:27:11.975Z,7.40
2017-07-22T00:28:08.383Z,7.40
2017-07-22T00:29:04.807Z,7.30
2017-07-22T00:30:02.104Z,6.70
2017-07-22T00:30:58.865Z,9.00
2017-07-22T00:31:55.258Z,7.50
2017-07-22T00:32:51.891Z,7.90
2017-07-22T00:33:48.303Z,7.70
2017-07-22T00:34:44.654Z,8.30
2017-07-22T00:41:24.124Z,8.00
2017-07-22T00:42:20.495Z,8.90
2017-07-22T00:43:16.927Z,8.40
2017-07-22T00:44:13.382Z,8.20
2017-07-22T00:45:09.835Z,7.80
2017-07-22T00:46:06.211Z,7.80
2017-07-22T00:47:02.620Z,8.20
2017-07-22T00:47:58.979Z,8.50
2017-07-22T00:48:55.371Z,8.30
2017-07-22T00:49:51.691Z,7.90
2017-07-22T00:50:48.085Z,7.20
2017-07-22T00:51:44.419Z,7.50
2017-07-22T00:53:50.922Z,8.00
2017-07-22T00:54:47.540Z,6.90
2017-07-22T00:55:44.004Z,8.20
2017-07-22T00:56:40.380Z,7.90
2017-07-22T00:57:37.856Z,7.30
2017-07-22T00:58:35.054Z,6.90
2017-07-22T01:00:44.335Z,7.80
2017-07-22T01:01:40.711Z,7.80
2017-07-22T01:02:38.067Z,6.50
2017-07-22T01:03:34.398Z,7.70
2017-07-22T01:04:30.783Z,7.20
2017-07-22T01:05:27.158Z,7.00
2017-07-22T01:07:28.552Z,7.40
2017-07-22T01:08:24.968Z,7.70
2017-07-22T01:09:21.363Z,8.10
2017-07-22T01:10:17.683Z,7.40
2017-07-22T01:11:14.024Z,7.10
2017-07-22T01:12:10.333Z,7.00
2017-07-22T01:13:06.713Z,7.90
2017-07-22T01:14:03.119Z,6.70
2017-07-22T01:14:59.486Z,7.10
2017-07-22T01:15:55.823Z,7.60
2017-07-22T01:16:53.044Z,8.50
2017-07-22T01:17:49.483Z,7.80
2017-07-22T01:18:46.699Z,8.30
2017-07-22T01:25:33.061Z,7.80
2017-07-22T01:26:29.589Z,10.80
2017-07-22T01:27:27.063Z,8.70
2017-07-22T01:31:47.413Z,8.40
2017-07-22T01:32:43.853Z,10.70
2017-07-22T01:33:40.255Z,8.60
2017-07-22T01:34:39.491Z,9.60
2017-07-22T01:35:36.831Z,10.90
2017-07-22T01:36:34.059Z,10.90
2017-07-22T01:37:30.428Z,10.80
2017-07-22T01:38:26.978Z,11.70
2017-07-22T01:41:43.841Z,10.10
2017-07-22T01:42:40.295Z,11.50
2017-07-22T01:43:37.512Z,10.60
2017-07-22T01:45:43.256Z,11.40
2017-07-22T01:46:39.707Z,10.60
2017-07-22T01:47:36.099Z,11.10
2017-07-22T01:48:34.263Z,11.20
2017-07-22T01:49:30.928Z,13.40
2017-07-22T01:50:29.345Z,12.40
2017-07-22T01:51:25.848Z,10.80
2017-07-22T01:52:22.312Z,9.10
2017-07-22T01:53:18.758Z,12.00
2017-07-22T01:54:15.175Z,11.20
2017-07-22T01:55:11.680Z,11.20
2017-07-22T01:56:10.051Z,11.40
2017-07-22T01:57:06.530Z,9.50
2017-07-22T01:58:03.847Z,10.20
2017-07-22T01:59:03.185Z,10.00
2017-07-22T02:01:08.811Z,11.20
2017-07-22T02:02:05.236Z,10.60
2017-07-22T02:03:02.596Z,11.30
2017-07-22T02:03:58.995Z,9.90
2017-07-22T02:06:06.695Z,9.80
2017-07-22T02:07:03.205Z,9.30
2017-07-22T02:07:59.624Z,10.00
2017-07-22T02:08:55.966Z,9.70
2017-07-22T02:09:53.323Z,10.40
2017-07-22T02:10:49.627Z,9.90
2017-07-22T02:11:47.077Z,10.90
2017-07-22T02:12:44.308Z,9.40
2017-07-22T02:13:40.707Z,10.20
2017-07-22T02:14:37.062Z,9.10
2017-07-22T02:15:33.427Z,9.00
2017-07-22T02:16:30.784Z,9.00
2017-07-22T02:17:28.987Z,8.70
2017-07-22T02:18:26.328Z,8.80
2017-07-22T02:19:22.739Z,9.60
2017-07-22T02:20:19.038Z,8.80
2017-07-22T02:21:15.495Z,10.20
2017-07-22T02:22:12.111Z,9.00
2017-07-22T02:23:08.504Z,9.60
2017-07-22T02:24:04.909Z,9.50
2017-07-22T02:25:01.271Z,10.10
2017-07-22T02:25:57.596Z,9.50
2017-07-22T02:26:55.831Z,10.00
2017-07-22T02:27:54.415Z,9.80
2017-07-22T02:28:55.960Z,10.90
2017-07-22T02:29:54.360Z,10.30
2017-07-22T02:30:50.759Z,10.40
2017-07-22T02:31:48.241Z,10.50
2017-07-22T02:32:44.690Z,11.00
2017-07-22T02:33:43.173Z,11.40
2017-07-22T02:34:39.510Z,10.90
2017-07-22T02:35:38.751Z,12.20
2017-07-22T02:36:35.984Z,11.00
2017-07-22T02:37:33.437Z,10.60
2017-07-22T02:38:29.839Z,10.90
2017-07-22T02:39:26.202Z,11.70
2017-07-22T02:40:24.403Z,13.40
2017-07-22T02:41:20.719Z,11.10
2017-07-22T02:42:17.060Z,10.70
2017-07-22T02:43:13.442Z,10.40
2017-07-22T02:44:09.763Z,10.10
2017-07-22T02:45:06.087Z,10.00
2017-07-22T02:46:07.172Z,10.50
2017-07-22T02:47:03.560Z,9.20
2017-07-22T02:48:00.847Z,8.70
2017-07-22T02:48:57.321Z,8.90
2017-07-22T02:49:53.731Z,7.40
2017-07-22T02:50:50.935Z,9.40
2017-07-22T02:51:48.219Z,7.70
2017-07-22T02:52:44.619Z,6.50
2017-07-22T02:53:41.123Z,7.20
2017-07-22T02:54:39.784Z,7.30
2017-07-22T02:55:37.159Z,6.40
2017-07-22T02:56:34.431Z,6.80
2017-07-22T02:57:31.859Z,6.50
2017-07-22T02:58:29.323Z,6.70
2017-07-22T02:59:25.726Z,6.20
2017-07-22T03:00:22.123Z,6.70
2017-07-22T03:01:19.560Z,6.60
2017-07-22T03:02:16.903Z,7.70
2017-07-22T03:03:13.254Z,6.80
2017-07-22T03:04:10.786Z,6.70
2017-07-22T03:05:07.195Z,7.90
2017-07-22T03:06:03.515Z,6.40
2017-07-22T03:07:00.743Z,9.60
2017-07-22T03:07:57.151Z,6.20
2017-07-22T03:08:54.488Z,5.60
2017-07-22T03:09:50.825Z,5.60
2017-07-22T03:10:47.963Z,6.20
2017-07-22T03:11:44.338Z,6.20
2017-07-22T03:12:41.464Z,5.70
2017-07-22T03:13:37.762Z,6.10
2017-07-22T03:14:34.094Z,5.10
2017-07-22T03:15:30.431Z,9.40
2017-07-22T03:16:26.742Z,5.70
2017-07-22T03:17:23.044Z,4.80
2017-07-22T03:18:19.321Z,5.20
2017-07-22T03:19:15.665Z,5.60
2017-07-22T03:20:11.998Z,8.10
2017-07-22T03:21:08.295Z,6.00
2017-07-22T03:22:04.611Z,5.60
2017-07-22T03:23:00.920Z,5.70
2017-07-22T03:23:57.241Z,5.30
2017-07-22T03:24:53.559Z,5.00
2017-07-22T03:25:49.863Z,5.10
2017-07-22T03:26:46.929Z,5.10
2017-07-22T03:27:43.227Z,6.10
2017-07-22T03:28:39.550Z,5.90
2017-07-22T03:29:35.891Z,6.10
2017-07-22T03:30:32.177Z,4.40
2017-07-22T03:31:28.456Z,5.60
2017-07-22T03:32:24.730Z,8.70
2017-07-22T03:33:20.997Z,5.20
2017-07-22T03:34:17.261Z,5.30
2017-07-22T03:35:13.531Z,4.90
2017-07-22T03:36:09.846Z,4.90
2017-07-22T03:37:06.122Z,4.60
2017-07-22T03:38:02.423Z,5.10
2017-07-22T03:38:58.694Z,5.60
2017-07-22T03:39:54.986Z,5.30
2017-07-22T03:40:51.287Z,4.40
2017-07-22T03:41:47.609Z,6.60
2017-07-22T03:42:43.950Z,5.90
2017-07-22T03:43:40.214Z,5.50
2017-07-22T03:44:36.518Z,5.30
2017-07-22T03:45:32.820Z,4.90
2017-07-22T03:46:29.118Z,4.90
2017-07-22T03:47:25.439Z,7.50
2017-07-22T03:48:21.824Z,5.30
2017-07-22T03:49:18.078Z,6.00
2017-07-22T03:50:15.334Z,5.00
2017-07-22T03:51:11.608Z,6.20
2017-07-22T03:52:07.919Z,4.60
2017-07-22T03:53:04.947Z,5.60
2017-07-22T03:54:01.311Z,5.30
2017-07-22T03:54:57.635Z,5.60
2017-07-22T03:55:53.975Z,5.20
2017-07-22T03:56:50.294Z,5.40
2017-07-22T03:57:46.598Z,5.40
2017-07-22T03:58:42.940Z,5.20
2017-07-22T03:59:39.257Z,5.40
2017-07-22T04:00:35.566Z,6.10
2017-07-22T04:01:31.856Z,5.30
2017-07-22T04:02:28.180Z,4.90
2017-07-22T04:03:24.452Z,6.00
2017-07-22T04:04:20.737Z,6.00
2017-07-22T04:05:17.911Z,12.20
2017-07-22T04:06:14.394Z,5.40
2017-07-22T04:07:10.735Z,5.40
2017-07-22T04:08:07.011Z,5.30
2017-07-22T04:09:04.075Z,5.20
2017-07-22T04:10:00.366Z,5.20
2017-07-22T04:10:56.724Z,5.40
2017-07-22T04:11:54.039Z,5.30
2017-07-22T04:12:50.422Z,5.50
2017-07-22T04:13:46.714Z,5.00
2017-07-22T04:14:42.971Z,5.20
2017-07-22T04:15:39.257Z,5.00
2017-07-22T04:16:36.631Z,5.50
2017-07-22T04:17:33.066Z,5.60
2017-07-22T04:18:29.352Z,6.20
2017-07-22T04:19:25.642Z,5.50
2017-07-22T04:20:21.963Z,5.80
2017-07-22T04:21:18.270Z,5.20
2017-07-22T04:22:14.603Z,5.60
2017-07-22T04:23:10.899Z,5.80
2017-07-22T04:24:08.027Z,4.90
2017-07-22T04:25:05.280Z,5.40
2017-07-22T04:26:01.591Z,5.40
2017-07-22T04:26:57.952Z,6.50
2017-07-22T04:27:55.310Z,5.60
2017-07-22T04:28:52.550Z,6.20
2017-07-22T04:29:48.862Z,5.40
2017-07-22T04:30:45.171Z,5.90
2017-07-22T04:31:41.462Z,5.80
2017-07-22T04:32:37.787Z,6.80
2017-07-22T04:33:34.098Z,6.80
2017-07-22T04:34:30.406Z,6.30
2017-07-22T04:35:26.707Z,5.90
2017-07-22T04:36:23.892Z,6.20
2017-07-22T04:37:21.220Z,5.90
2017-07-22T04:38:17.611Z,6.20
2017-07-22T04:39:13.944Z,6.00
2017-07-22T04:40:10.230Z,6.70
2017-07-22T04:41:07.353Z,5.80
2017-07-22T04:42:03.666Z,5.70
2017-07-22T04:42:59.994Z,5.10
2017-07-22T04:43:56.263Z,6.20
2017-07-22T04:44:52.542Z,5.90
2017-07-22T04:45:49.854Z,5.30
2017-07-22T04:46:46.987Z,5.90
2017-07-22T04:47:43.397Z,6.30
2017-07-22T04:48:40.579Z,7.20
2017-07-22T04:50:50.048Z,8.70
2017-07-22T04:51:46.435Z,7.90
2017-07-22T04:52:42.851Z,8.90
2017-07-22T04:53:39.138Z,9.30
2017-07-22T04:54:35.410Z,8.20
2017-07-22T04:55:31.779Z,10.80
2017-07-22T04:56:28.174Z,27.30
2017-07-22T04:57:26.295Z,7.20
2017-07-22T04:58:24.744Z,9.30
2017-07-22T04:59:21.132Z,9.00
2017-07-22T05:00:17.506Z,7.50
2017-07-22T05:01:13.890Z,6.90
2017-07-22T05:02:11.080Z,7.40
2017-07-22T05:03:09.411Z,6.60
2017-07-22T05:04:05.810Z,7.30
2017-07-22T05:05:02.246Z,7.40
2017-07-22T05:05:59.439Z,8.60
2017-07-22T05:06:55.773Z,6.90
2017-07-22T05:07:52.163Z,7.60
2017-07-22T05:08:48.453Z,7.00
2017-07-22T05:09:44.726Z,7.70
2017-07-22T05:10:41.018Z,7.50
2017-07-22T05:11:37.446Z,7.80
2017-07-22T05:12:33.718Z,7.40
2017-07-22T05:13:30.863Z,8.30
2017-07-22T05:14:28.210Z,10.20
2017-07-22T05:15:24.482Z,8.50
2017-07-22T05:16:21.894Z,8.00
2017-07-22T05:17:18.203Z,8.20
2017-07-22T05:18:15.463Z,8.90
2017-07-22T05:19:12.867Z,9.10
2017-07-22T05:20:09.363Z,7.70
2017-07-22T05:21:05.755Z,8.40
2017-07-22T05:22:02.107Z,8.10
2017-07-22T05:23:00.404Z,10.10
2017-07-22T05:23:57.724Z,9.90
2017-07-22T05:24:54.094Z,9.50
2017-07-22T05:25:51.202Z,9.00
2017-07-22T05:26:47.486Z,9.20
2017-07-22T05:27:43.775Z,8.70
2017-07-22T05:28:40.083Z,8.90
2017-07-22T05:29:37.242Z,9.70
2017-07-22T05:30:33.525Z,8.20
2017-07-22T05:31:29.914Z,8.30
2017-07-22T05:32:26.287Z,10.20
2017-07-22T05:33:22.729Z,10.10
2017-07-22T05:34:19.041Z,10.10
2017-07-22T05:35:15.411Z,11.50
2017-07-22T05:36:12.603Z,10.70
2017-07-22T05:37:08.862Z,11.10
2017-07-22T05:40:18.118Z,9.70
2017-07-22T05:41:14.514Z,10.50
2017-07-22T05:42:10.803Z,9.90
2017-07-22T05:43:13.284Z,10.60
2017-07-22T05:44:15.806Z,10.70
2017-07-22T05:45:12.299Z,9.00
2017-07-22T05:46:08.667Z,9.00
2017-07-22T05:47:04.953Z,10.70
2017-07-22T05:48:06.460Z,10.80
2017-07-22T05:49:02.830Z,9.70
2017-07-22T05:49:59.136Z,10.90
2017-07-22T05:50:55.424Z,10.90
2017-07-22T05:51:51.718Z,10.80
2017-07-22T05:52:49.043Z,10.10
2017-07-22T05:53:45.323Z,10.20
2017-07-22T05:54:42.359Z,10.90
2017-07-22T05:55:38.653Z,11.10
2017-07-22T05:56:35.714Z,11.70
2017-07-22T05:57:32.035Z,12.40
2017-07-22T05:59:36.904Z,12.80
2017-07-22T06:00:33.267Z,15.40
2017-07-22T06:01:29.623Z,13.00
2017-07-22T06:02:25.995Z,13.90
2017-07-22T06:03:22.345Z,13.50
2017-07-22T06:04:19.466Z,12.90
2017-07-22T06:05:15.747Z,14.00
2017-07-22T06:08:29.584Z,13.70
2017-07-22T06:09:26.101Z,13.60
2017-07-22T06:10:23.340Z,12.80
2017-07-22T06:11:19.650Z,13.80
2017-07-22T06:12:16.175Z,13.60
2017-07-22T06:13:12.463Z,13.10
2017-07-22T06:14:08.747Z,13.10
2017-07-22T06:15:05.987Z,12.20
2017-07-22T06:16:02.976Z,15.10
2017-07-22T06:16:59.343Z,14.30
2017-07-22T06:17:55.671Z,13.20
2017-07-22T06:18:52.018Z,14.00
2017-07-22T06:19:48.558Z,15.30
2017-07-22T06:20:46.015Z,14.90
2017-07-22T06:21:42.307Z,13.40
2017-07-22T06:22:39.458Z,14.00
2017-07-22T06:23:35.766Z,13.80
2017-07-22T06:24:32.090Z,14.20
2017-07-22T06:25:28.374Z,13.90
2017-07-22T06:26:24.650Z,15.30
2017-07-22T06:27:23.011Z,15.20
2017-07-22T06:28:19.318Z,13.60
2017-07-22T06:29:15.582Z,13.60
2017-07-22T06:30:12.695Z,15.50
2017-07-22T06:31:09.911Z,13.00
2017-07-22T06:32:07.355Z,14.00
2017-07-22T06:33:03.707Z,14.20
2017-07-22T06:33:59.997Z,15.00
2017-07-22T06:34:56.274Z,13.20
2017-07-22T06:35:53.358Z,14.50
2017-07-22T06:36:49.630Z,14.30
2017-07-22T06:37:45.894Z,14.40
2017-07-22T06:38:42.195Z,14.50
2017-07-22T06:39:39.458Z,17.30
2017-07-22T06:40:36.643Z,14.70
2017-07-22T06:41:33.886Z,14.20
2017-07-22T06:42:31.091Z,16.60
2017-07-22T06:43:27.351Z,14.40
2017-07-22T06:44:24.701Z,15.40
2017-07-22T06:45:21.130Z,14.70
2017-07-22T06:46:18.407Z,16.20
2017-07-22T06:47:15.523Z,15.70
2017-07-22T06:48:11.802Z,15.90
2017-07-22T06:49:08.123Z,14.10
2017-07-22T06:50:04.442Z,15.90
2017-07-22T06:51:00.727Z,16.20
2017-07-22T06:51:58.111Z,16.50
2017-07-22T06:52:54.434Z,16.70
2017-07-22T06:53:51.727Z,14.80
2017-07-22T06:54:48.125Z,14.90
2017-07-22T06:55:44.442Z,16.70
2017-07-22T06:56:43.607Z,15.80
2017-07-22T06:57:40.715Z,16.10
2017-07-22T06:58:37.203Z,20.40
2017-07-22T06:59:33.462Z,17.80
2017-07-22T07:00:29.735Z,17.30
2017-07-22T07:01:25.997Z,16.40
2017-07-22T07:02:22.302Z,18.00
2017-07-22T07:03:18.570Z,15.60
2017-07-22T07:04:14.877Z,19.00
2017-07-22T07:05:12.139Z,16.00
2017-07-22T07:06:09.218Z,18.00
2017-07-22T07:07:05.507Z,18.90
2017-07-22T07:08:01.780Z,16.80
2017-07-22T07:08:58.058Z,19.00
2017-07-22T07:09:54.314Z,17.30
2017-07-22T07:10:50.686Z,17.70
2017-07-22T07:11:46.976Z,18.00
2017-07-22T07:12:43.262Z,17.80
2017-07-22T07:13:39.554Z,16.80
2017-07-22T07:14:35.815Z,16.50
2017-07-22T07:15:32.122Z,18.00
2017-07-22T07:16:28.435Z,17.00
2017-07-22T07:17:24.727Z,16.90
2017-07-22T07:18:20.974Z,17.80
2017-07-22T07:19:17.270Z,17.70
2017-07-22T07:20:14.473Z,18.70
2017-07-22T07:21:10.730Z,17.40
2017-07-22T07:22:07.022Z,19.20
2017-07-22T07:23:03.278Z,16.40
2017-07-22T07:24:01.391Z,16.00
2017-07-22T07:24:59.760Z,17.10
2017-07-22T07:25:56.162Z,14.60
2017-07-22T07:26:52.497Z,13.40
2017-07-22T07:27:48.815Z,14.40
2017-07-22T07:28:45.067Z,13.60
2017-07-22T07:29:41.330Z,13.10
2017-07-22T07:30:37.582Z,14.30
2017-07-22T07:31:34.739Z,12.50
2017-07-22T07:32:31.906Z,12.10
2017-07-22T07:33:29.082Z,12.50
2017-07-22T07:34:26.243Z,12.80
2017-07-22T07:35:23.407Z,11.90
2017-07-22T07:36:20.581Z,13.00
2017-07-22T07:37:17.782Z,12.50
2017-07-22T07:38:14.110Z,13.10
2017-07-22T07:39:10.622Z,11.80
2017-07-22T07:40:06.878Z,11.50
2017-07-22T07:41:03.135Z,11.90
2017-07-22T07:41:59.389Z,13.00
2017-07-22T07:42:55.654Z,11.70
2017-07-22T07:43:51.907Z,11.10
2017-07-22T07:44:48.166Z,11.00
2017-07-22T07:45:44.418Z,12.30
2017-07-22T07:46:40.669Z,11.20
2017-07-22T07:47:36.922Z,10.50
2017-07-22T07:48:33.191Z,11.70
2017-07-22T07:49:29.438Z,11.40
2017-07-22T07:50:25.679Z,11.40
2017-07-22T07:51:21.939Z,9.40
2017-07-22T07:52:18.219Z,10.60
2017-07-22T07:53:15.402Z,10.70
2017-07-22T07:54:11.655Z,11.00
2017-07-22T07:55:07.896Z,10.80
2017-07-22T07:56:04.138Z,11.60
2017-07-22T07:57:00.378Z,10.60
2017-07-22T07:57:56.653Z,12.90
2017-07-22T07:58:52.966Z,10.00
2017-07-22T07:59:49.214Z,10.00
2017-07-22T08:00:45.459Z,10.70
2017-07-22T08:01:41.698Z,10.70
2017-07-22T08:02:37.943Z,12.40
2017-07-22T08:03:34.203Z,10.90
2017-07-22T08:04:30.438Z,11.30
2017-07-22T08:05:26.675Z,10.70
2017-07-22T08:06:22.926Z,12.60
2017-07-22T08:07:19.184Z,9.80
2017-07-22T08:08:15.457Z,11.00
2017-07-22T08:09:11.715Z,10.40
2017-07-22T08:10:07.971Z,11.10
2017-07-22T08:11:04.210Z,10.80
2017-07-22T08:12:00.458Z,11.30
2017-07-22T08:12:56.727Z,10.80
2017-07-22T08:13:52.963Z,13.30
2017-07-22T08:14:49.246Z,12.30
2017-07-22T08:15:45.478Z,13.00
2017-07-22T08:16:41.727Z,11.80
2017-07-22T08:17:37.975Z,11.40
2017-07-22T08:18:34.238Z,10.80
2017-07-22T08:19:30.482Z,9.10
2017-07-22T08:20:26.726Z,9.70
2017-07-22T08:21:22.970Z,9.20
2017-07-22T08:22:19.215Z,8.20
2017-07-22T08:23:15.470Z,6.40
2017-07-22T08:24:11.718Z,6.90
2017-07-22T08:25:07.964Z,8.50
2017-07-22T08:26:04.223Z,6.90
2017-07-22T08:27:00.470Z,7.10
2017-07-22T08:27:56.706Z,6.30
2017-07-22T08:28:52.968Z,6.40
2017-07-22T08:29:49.222Z,7.00
2017-07-22T08:30:45.478Z,7.20
2017-07-22T08:31:41.726Z,6.00
2017-07-22T08:32:37.984Z,7.20
2017-07-22T08:33:34.274Z,6.20
2017-07-22T08:34:30.763Z,7.40
2017-07-22T08:35:26.999Z,8.30
2017-07-22T08:36:23.258Z,8.40
2017-07-22T08:37:19.537Z,9.00
2017-07-22T08:38:15.774Z,6.50
2017-07-22T08:39:12.046Z,6.60
2017-07-22T08:40:08.308Z,7.60
2017-07-22T08:41:04.564Z,8.90
2017-07-22T08:42:00.835Z,8.90
2017-07-22T08:42:57.087Z,7.60
2017-07-22T08:43:53.367Z,7.80
2017-07-22T08:44:49.606Z,7.70
2017-07-22T08:45:45.859Z,7.10
2017-07-22T08:46:42.103Z,6.70
2017-07-22T08:47:38.338Z,8.00
2017-07-22T08:48:34.599Z,7.00
2017-07-22T08:49:30.854Z,7.40
2017-07-22T08:50:27.102Z,6.80
2017-07-22T08:51:23.360Z,6.50
2017-07-22T08:52:19.625Z,30.10
2017-07-22T08:53:15.870Z,12.90
2017-07-22T08:54:12.117Z,13.80
2017-07-22T08:55:08.399Z,11.30
2017-07-22T08:56:04.711Z,7.50
2017-07-22T08:57:00.954Z,8.30
2017-07-22T08:57:57.207Z,8.90
2017-07-22T08:58:53.463Z,9.50
2017-07-22T08:59:49.746Z,8.40
2017-07-22T09:00:45.999Z,8.30
2017-07-22T09:01:42.247Z,7.00
2017-07-22T09:02:38.546Z,7.10
2017-07-22T09:03:34.807Z,6.60
2017-07-22T09:04:31.054Z,6.90
2017-07-22T09:05:27.318Z,6.80
2017-07-22T09:06:23.562Z,5.80
2017-07-22T09:07:19.815Z,5.70
2017-07-22T09:08:16.058Z,6.50
2017-07-22T09:09:12.309Z,8.00
2017-07-22T09:10:08.588Z,7.30
2017-07-22T09:11:04.835Z,9.40
2017-07-22T09:12:01.070Z,7.20
2017-07-22T09:12:57.327Z,6.30
2017-07-22T09:13:53.571Z,6.30
2017-07-22T09:14:49.820Z,5.10
2017-07-22T09:15:46.090Z,5.70
2017-07-22T09:16:42.326Z,7.30
2017-07-22T09:17:38.573Z,5.80
2017-07-22T09:18:34.847Z,5.40
2017-07-22T09:19:31.098Z,5.80
2017-07-22T09:20:27.359Z,4.90
2017-07-22T09:21:23.615Z,7.00
2017-07-22T09:22:19.884Z,5.60
2017-07-22T09:23:16.134Z,6.80
2017-07-22T09:24:12.386Z,6.60
2017-07-22T09:25:08.642Z,5.50
2017-07-22T09:26:04.902Z,5.20
2017-07-22T09:27:01.151Z,5.20
2017-07-22T09:27:57.414Z,7.40
2017-07-22T09:28:53.704Z,5.70
2017-07-22T09:29:49.931Z,4.50
2017-07-22T09:30:46.174Z,4.50
2017-07-22T09:31:42.439Z,4.90
2017-07-22T09:32:38.683Z,4.70
2017-07-22T09:33:35.382Z,5.40
2017-07-22T09:34:31.649Z,4.40
2017-07-22T09:35:27.914Z,4.80
2017-07-22T09:36:24.179Z,4.70
2017-07-22T09:37:20.483Z,4.00
2017-07-22T09:38:16.747Z,4.30
2017-07-22T09:39:13.003Z,6.10
2017-07-22T09:40:09.275Z,5.40
2017-07-22T09:41:05.578Z,4.40
2017-07-22T09:42:01.830Z,4.50
2017-07-22T09:42:58.093Z,4.00
2017-07-22T09:43:54.371Z,5.30
2017-07-22T09:44:50.630Z,4.70
2017-07-22T09:45:46.893Z,5.00
2017-07-22T09:46:43.154Z,4.50
2017-07-22T09:47:39.475Z,5.40
2017-07-22T09:48:35.731Z,4.80
2017-07-22T09:49:31.998Z,4.90
2017-07-22T09:50:28.246Z,5.20
2017-07-22T09:51:24.495Z,4.50
2017-07-22T09:52:20.797Z,5.00
2017-07-22T09:53:17.185Z,5.60
2017-07-22T09:54:13.439Z,5.30
2017-07-22T09:55:09.714Z,5.20
2017-07-22T09:56:05.959Z,5.30
2017-07-22T09:57:02.246Z,4.70
2017-07-22T09:57:58.539Z,7.50
2017-07-22T09:58:54.782Z,5.60
2017-07-22T09:59:51.043Z,5.60
2017-07-22T10:00:47.290Z,4.90
2017-07-22T10:01:43.539Z,6.70
2017-07-22T10:02:39.807Z,6.80
2017-07-22T10:03:36.054Z,6.30
2017-07-22T10:04:32.302Z,5.50
2017-07-22T10:05:28.552Z,6.30
2017-07-22T10:06:24.811Z,6.30
2017-07-22T10:07:21.073Z,6.20
2017-07-22T10:08:17.322Z,5.40
2017-07-22T10:09:13.576Z,5.60
2017-07-22T10:10:09.838Z,7.10
2017-07-22T10:11:06.090Z,5.00
2017-07-22T10:12:02.354Z,5.90
2017-07-22T10:12:58.619Z,5.90
2017-07-22T10:13:54.874Z,5.50
2017-07-22T10:14:52.173Z,8.60
2017-07-22T10:15:48.438Z,5.10
2017-07-22T10:16:44.722Z,7.10
2017-07-22T10:17:40.993Z,6.80
2017-07-22T10:18:37.242Z,5.40
2017-07-22T10:19:33.492Z,7.50
2017-07-22T10:20:29.742Z,4.90
2017-07-22T10:21:26.315Z,6.00
2017-07-22T10:22:22.578Z,6.20
2017-07-22T10:23:18.843Z,5.90
2017-07-22T10:24:15.090Z,5.60
2017-07-22T10:25:11.347Z,6.20
2017-07-22T10:26:07.598Z,5.70
2017-07-22T10:27:03.852Z,6.20
2017-07-22T10:28:00.118Z,7.10
2017-07-22T10:28:56.358Z,5.90
2017-07-22T10:29:52.606Z,5.30
2017-07-22T10:30:48.863Z,6.10
2017-07-22T10:31:45.111Z,5.90
2017-07-22T10:32:41.379Z,6.50
2017-07-22T10:33:37.643Z,5.10
2017-07-22T10:34:33.919Z,5.70
2017-07-22T10:35:30.175Z,5.70
2017-07-22T10:36:26.422Z,5.70
2017-07-22T10:37:22.674Z,5.00
2017-07-22T10:38:18.966Z,5.80
2017-07-22T10:39:15.230Z,4.50
2017-07-22T10:40:11.495Z,5.40
2017-07-22T10:41:07.747Z,5.50
2017-07-22T10:42:03.995Z,5.90
2017-07-22T10:43:00.265Z,6.40
2017-07-22T10:43:56.526Z,5.30
2017-07-22T10:44:52.782Z,5.60
2017-07-22T10:45:49.042Z,5.40
2017-07-22T10:46:45.298Z,5.20
2017-07-22T10:47:41.558Z,5.70
2017-07-22T10:48:37.798Z,5.80
2017-07-22T10:49:34.055Z,6.20
2017-07-22T10:50:30.298Z,6.40
2017-07-22T10:51:26.559Z,5.90
2017-07-22T10:52:22.827Z,6.20
2017-07-22T10:53:19.071Z,5.70
2017-07-22T10:54:15.351Z,6.20
2017-07-22T10:55:11.598Z,6.10
2017-07-22T10:56:07.842Z,6.40
2017-07-22T10:57:04.105Z,9.70
2017-07-22T10:58:00.369Z,8.40
2017-07-22T10:58:56.610Z,8.00
2017-07-22T10:59:52.879Z,6.40
2017-07-22T11:00:49.122Z,5.60
2017-07-22T11:01:45.387Z,5.80
2017-07-22T11:02:41.633Z,5.60
2017-07-22T11:03:37.875Z,6.80
2017-07-22T11:04:34.138Z,5.40
2017-07-22T11:05:30.399Z,6.20
2017-07-22T11:06:26.754Z,6.60
2017-07-22T11:07:23.003Z,5.80
2017-07-22T11:08:19.310Z,6.30
2017-07-22T11:09:15.558Z,6.00
2017-07-22T11:10:11.950Z,5.90
2017-07-22T11:11:08.242Z,6.60
2017-07-22T11:12:09.463Z,5.60
2017-07-22T11:13:05.703Z,5.70
2017-07-22T11:14:01.970Z,5.70
2017-07-22T11:14:58.235Z,6.90
2017-07-22T11:15:54.486Z,6.10
2017-07-22T11:16:50.728Z,6.10
2017-07-22T11:17:46.967Z,7.00
2017-07-22T11:18:43.215Z,6.70
2017-07-22T11:19:39.474Z,6.00
2017-07-22T11:20:35.727Z,5.90
2017-07-22T11:21:32.027Z,6.40
2017-07-22T11:22:28.329Z,6.50
2017-07-22T11:23:24.577Z,6.30
2017-07-22T11:24:20.818Z,9.00
2017-07-22T11:25:17.075Z,6.40
2017-07-22T11:26:13.334Z,6.80
2017-07-22T11:27:09.582Z,6.50
2017-07-22T11:28:05.903Z,7.00
2017-07-22T11:29:02.152Z,6.20
2017-07-22T11:29:58.412Z,6.40
2017-07-22T11:30:54.667Z,7.50
2017-07-22T11:31:50.907Z,7.90
2017-07-22T11:32:47.154Z,6.10
2017-07-22T11:33:43.399Z,6.60
2017-07-22T11:34:39.650Z,6.70
2017-07-22T11:35:35.898Z,7.40
2017-07-22T11:36:32.170Z,6.80
2017-07-22T11:37:28.414Z,7.10
2017-07-22T11:38:24.665Z,6.90
2017-07-22T11:39:20.976Z,6.50
2017-07-22T11:40:17.228Z,6.50
2017-07-22T11:41:13.485Z,7.50
2017-07-22T11:42:09.743Z,8.00
2017-07-22T11:43:05.999Z,12.30
2017-07-22T11:44:02.266Z,7.40
2017-07-22T11:44:58.523Z,7.30
2017-07-22T11:45:54.811Z,6.90
2017-07-22T11:46:51.066Z,6.70
2017-07-22T11:47:47.298Z,8.20
2017-07-22T11:48:43.543Z,7.60
2017-07-22T11:49:39.780Z,8.00
2017-07-22T11:50:36.057Z,8.10
2017-07-22T11:51:32.368Z,7.10
2017-07-22T11:52:28.662Z,8.70
2017-07-22T11:53:24.907Z,7.70
2017-07-22T11:54:21.155Z,7.60
2017-07-22T11:55:18.478Z,11.10
2017-07-22T11:56:14.730Z,9.50
2017-07-22T11:57:10.981Z,9.30
2017-07-22T11:58:07.274Z,8.00
2017-07-22T11:59:03.611Z,8.00
2017-07-22T11:59:59.923Z,8.40
2017-07-22T12:00:56.162Z,8.30
2017-07-22T12:01:52.442Z,10.00
2017-07-22T12:02:48.763Z,8.20
2017-07-22T12:03:45.010Z,9.70
2017-07-22T12:04:41.312Z,9.10
2017-07-22T12:05:37.582Z,9.10
2017-07-22T12:06:33.821Z,9.90
2017-07-22T12:07:30.109Z,10.00
2017-07-22T12:08:26.350Z,10.10
2017-07-22T12:09:22.635Z,10.00
2017-07-22T12:10:19.087Z,9.80
2017-07-22T12:11:15.541Z,9.70
2017-07-22T12:12:12.703Z,10.20
2017-07-22T12:13:08.958Z,10.40
2017-07-22T12:14:05.262Z,10.60
2017-07-22T12:15:01.527Z,10.50
2017-07-22T12:15:57.775Z,11.20
2017-07-22T12:16:54.038Z,10.30
2017-07-22T12:17:50.499Z,11.40
2017-07-22T12:18:46.842Z,11.00
2017-07-22T12:19:43.117Z,10.10
2017-07-22T12:20:40.423Z,9.50
2017-07-22T12:21:36.682Z,10.20
2017-07-22T12:22:32.929Z,9.70
2017-07-22T12:23:29.198Z,9.50
2017-07-22T12:24:25.487Z,8.00
2017-07-22T12:25:21.754Z,8.60
2017-07-22T12:26:18.014Z,7.00
2017-07-22T12:27:14.257Z,7.70
2017-07-22T12:28:10.575Z,8.30
2017-07-22T12:29:06.826Z,7.30
2017-07-22T12:30:03.089Z,8.00
2017-07-22T12:30:59.327Z,8.60
2017-07-22T12:31:55.635Z,8.00
2017-07-22T12:32:51.883Z,8.10
2017-07-22T12:33:48.144Z,8.50
2017-07-22T12:34:44.378Z,6.10
2017-07-22T12:35:40.640Z,6.50
2017-07-22T12:36:36.938Z,5.90
2017-07-22T12:37:33.188Z,5.70
2017-07-22T12:38:29.478Z,5.70
2017-07-22T12:39:25.741Z,5.30
2017-07-22T12:40:21.979Z,5.60
2017-07-22T12:41:19.104Z,5.80
2017-07-22T12:42:15.342Z,4.80
2017-07-22T12:43:11.599Z,7.10
2017-07-22T12:44:07.850Z,7.00
2017-07-22T12:45:04.099Z,4.10
2017-07-22T12:46:00.342Z,4.10
2017-07-22T12:46:56.646Z,3.00
2017-07-22T12:47:52.882Z,3.70
2017-07-22T12:48:49.169Z,2.90
2017-07-22T12:49:45.491Z,3.80
2017-07-22T12:50:41.734Z,3.70
2017-07-22T12:51:37.978Z,3.30
2017-07-22T12:52:34.222Z,3.00
2017-07-22T12:53:30.458Z,2.60
2017-07-22T12:54:26.845Z,3.50
2017-07-22T12:55:23.079Z,4.00
2017-07-22T12:56:19.322Z,3.70
2017-07-22T12:57:15.561Z,2.00
2017-07-22T12:58:11.809Z,2.70
2017-07-22T12:59:08.102Z,2.80
2017-07-22T13:00:04.342Z,3.10